Vancouver, WA

10:08 AM PDT on April 29, 2017 (GMT -0700)
Ogden | | Change Station

Elev 226 ft 45.64 °N, 122.58 °W | Updated 15 seconds ago

Partly Cloudy
Partly Cloudy
56.0 °F
Feels Like 56.0 °F
N
1.0
Wind Variable Wind from SSW

Today
High -- | Low -- °F
--% Chance of Precip.
Yesterday
High -- | Low -- °F
Precip. -- in
Pressure 30.31 in
Visibility 10.0 miles
Clouds Few 1000 ft
Few 10000 ft
Scattered Clouds 23000 ft
Mostly Cloudy 26000 ft
Dew Point 43 °F
Humidity 63%
Rainfall 0.00 in
Snow Depth Not available.
6:00 AM 8:15 PM
Waxing Crescent, 15% visible
METAR KPDX 291653Z 06003KT 10SM FEW010 FEW100 SCT230 BKN260 09/06 A3031 RMK AO2 SLP264 T00890056
Pressure 30.31 in
Visibility 10.0 miles
Clouds Few 1000 ft
Few 10000 ft
Scattered Clouds 23000 ft
Mostly Cloudy 26000 ft
Dew Point 43 °F
Humidity 63%
Rainfall 0.00 in
Snow Depth Not available.
6:00 AM 8:15 PM
Waxing Crescent, 15% visible
METAR KPDX 291653Z 06003KT 10SM FEW010 FEW100 SCT230 BKN260 09/06 A3031 RMK AO2 SLP264 T00890056

Get Severe Weather Alerts

Thanks for signing up!

Be on the lookout for a verification email in your inbox.

You'll start receiving the daily forecast at 8 AM.

×

10-Day Weather Forecast

Almanac

Astronomy

Apr. 29, 2017 Rise Set
Actual Time
Civil Twilight
Nautical Twilight
Astronomical Twilight
Moon
Length of Visible Light
Length of Day
Tomorrow will be .
, % of the Moon is Illuminated

Today's Extremes

State Highs State Lows

Community

WunderPhotos

WunderBlog® & News

Nearby

Air Quality

  Air Quality AQ Index Pollutant
Not available.

Snow Depth

Station Depth Elevation

Earthquake Activity

City Distance Mag. Time & Date
Minimum magnitude displayed is 2.5.

Coastal Water Temperatures

Place Temperature

Stations

Nearby Weather Stations

Station Location Temp. Windchill Dew Point Humidity Wind Precip. Elev Updated Type
                   

Watches & Warnings

There are currently no watches in effect.